createdAt,value
2017-08-05T00:00:42.705Z,53.81
2017-08-05T00:03:12.214Z,54.21
2017-08-05T00:05:41.737Z,54.31
2017-08-05T00:08:11.264Z,54.02
2017-08-05T00:10:40.833Z,54.54
2017-08-05T00:13:10.390Z,54.36
2017-08-05T00:15:40.002Z,55.60
2017-08-05T00:18:09.552Z,55.75
2017-08-05T00:20:39.102Z,55.92
2017-08-05T00:23:08.631Z,55.29
2017-08-05T00:25:38.165Z,55.78
2017-08-05T00:28:07.739Z,55.67
2017-08-05T00:30:37.281Z,55.98
2017-08-05T00:33:06.807Z,56.13
2017-08-05T00:35:36.358Z,57.73
2017-08-05T00:38:05.901Z,57.97
2017-08-05T00:40:35.425Z,57.91
2017-08-05T00:43:04.934Z,57.95
2017-08-05T00:45:34.458Z,58.74
2017-08-05T00:48:03.638Z,58.05
2017-08-05T00:50:33.195Z,58.57
2017-08-05T00:53:02.750Z,59.01
2017-08-05T00:55:32.284Z,58.08
2017-08-05T00:58:01.791Z,58.85
2017-08-05T01:00:31.369Z,58.56
2017-08-05T01:03:00.910Z,58.38
2017-08-05T01:05:30.445Z,59.01
2017-08-05T01:08:01.087Z,58.21
2017-08-05T01:10:30.638Z,58.12
2017-08-05T01:13:00.147Z,58.59
2017-08-05T01:15:29.300Z,58.25
2017-08-05T01:17:58.837Z,58.18
2017-08-05T01:20:28.416Z,58.29
2017-08-05T01:22:57.968Z,58.26
2017-08-05T01:25:27.907Z,57.71
2017-08-05T01:27:57.474Z,59.42
2017-08-05T01:30:27.118Z,59.69
2017-08-05T01:32:56.304Z,59.23
2017-08-05T01:35:25.525Z,58.87
2017-08-05T01:37:55.817Z,59.15
2017-08-05T01:40:25.335Z,58.95
2017-08-05T01:42:54.531Z,58.83
2017-08-05T01:45:23.840Z,59.37
2017-08-05T01:47:52.673Z,58.86
2017-08-05T01:50:21.526Z,59.47
2017-08-05T01:52:50.404Z,58.08
2017-08-05T01:55:19.567Z,57.99
2017-08-05T01:57:48.765Z,58.14
2017-08-05T02:00:17.612Z,58.63
2017-08-05T02:02:47.249Z,58.88
2017-08-05T02:05:16.423Z,59.97
2017-08-05T02:07:45.288Z,60.67
2017-08-05T02:10:14.286Z,59.34
2017-08-05T02:12:43.812Z,59.13
2017-08-05T02:15:14.106Z,58.91
2017-08-05T02:17:43.628Z,59.27
2017-08-05T02:20:13.165Z,58.52
2017-08-05T02:22:43.462Z,58.97
2017-08-05T02:25:12.993Z,60.77
2017-08-05T02:27:43.278Z,60.88
2017-08-05T02:30:12.824Z,60.50
2017-08-05T02:32:42.336Z,60.72
2017-08-05T02:35:12.206Z,59.49
2017-08-05T02:37:41.845Z,58.81
2017-08-05T02:40:11.887Z,59.63
2017-08-05T02:42:41.449Z,61.05
2017-08-05T02:45:10.996Z,60.28
2017-08-05T02:47:40.545Z,60.76
2017-08-05T02:50:10.094Z,61.58
2017-08-05T02:52:40.391Z,61.67
2017-08-05T02:55:09.972Z,61.41
2017-08-05T02:57:39.519Z,61.82
2017-08-05T03:00:09.449Z,61.80
2017-08-05T03:02:39.762Z,62.44
2017-08-05T03:05:10.069Z,62.52
2017-08-05T03:07:39.626Z,62.18
2017-08-05T03:10:09.144Z,63.21
2017-08-05T03:12:38.672Z,62.17
2017-08-05T03:15:07.845Z,61.54
2017-08-05T03:17:37.367Z,61.29
2017-08-05T03:20:06.918Z,62.14
2017-08-05T03:22:37.202Z,61.01
2017-08-05T03:25:06.840Z,61.97
2017-08-05T03:27:36.373Z,61.26
2017-08-05T03:30:05.982Z,61.18
2017-08-05T03:32:35.556Z,60.41
2017-08-05T03:35:05.057Z,61.49
2017-08-05T03:37:34.977Z,61.11
2017-08-05T03:40:04.641Z,61.13
2017-08-05T03:42:34.182Z,61.37
2017-08-05T03:45:03.746Z,62.24
2017-08-05T03:47:33.276Z,61.26
2017-08-05T03:50:02.805Z,60.96
2017-08-05T03:52:32.353Z,61.54
2017-08-05T03:55:01.916Z,61.72
2017-08-05T03:57:31.118Z,62.15
2017-08-05T04:00:00.675Z,63.37
2017-08-05T04:02:30.199Z,63.40
2017-08-05T04:04:59.746Z,63.56
2017-08-05T04:07:29.271Z,63.98
2017-08-05T04:09:59.589Z,63.44
2017-08-05T04:12:29.880Z,63.19
2017-08-05T04:14:59.452Z,62.22
2017-08-05T04:17:28.972Z,62.01
2017-08-05T04:19:58.535Z,63.23
2017-08-05T04:22:28.825Z,62.05
2017-08-05T04:24:58.356Z,62.13
2017-08-05T04:27:27.555Z,62.84
2017-08-05T04:29:57.064Z,61.83
2017-08-05T04:32:26.598Z,62.20
2017-08-05T04:34:56.168Z,63.45
2017-08-05T04:37:25.715Z,63.86
2017-08-05T04:39:55.238Z,63.12
2017-08-05T04:42:24.758Z,62.33
2017-08-05T04:44:54.351Z,62.65
2017-08-05T04:47:23.869Z,62.73
2017-08-05T04:49:53.412Z,62.77
2017-08-05T04:52:22.930Z,62.48
2017-08-05T04:54:53.232Z,63.60
2017-08-05T04:57:22.761Z,63.37
2017-08-05T04:59:53.058Z,63.68
2017-08-05T05:02:22.612Z,63.86
2017-08-05T05:04:52.126Z,61.97
2017-08-05T05:07:21.652Z,59.82
2017-08-05T05:09:51.186Z,59.14
2017-08-05T05:12:20.726Z,59.32
2017-08-05T05:14:51.041Z,58.39
2017-08-05T05:17:21.318Z,56.90
2017-08-05T05:19:50.846Z,58.13
2017-08-05T05:22:20.371Z,57.65
2017-08-05T05:24:50.760Z,57.30
2017-08-05T05:27:20.290Z,57.07
2017-08-05T05:29:49.827Z,57.64
2017-08-05T05:32:19.967Z,55.80
2017-08-05T05:34:49.509Z,55.63
2017-08-05T05:37:19.072Z,56.25
2017-08-05T05:39:48.587Z,55.00
2017-08-05T05:42:18.171Z,55.72
2017-08-05T05:44:48.453Z,56.13
2017-08-05T05:47:17.972Z,56.31
2017-08-05T05:49:47.593Z,56.59
2017-08-05T05:52:17.889Z,55.26
2017-08-05T05:54:47.620Z,56.15
2017-08-05T05:57:17.144Z,56.24
2017-08-05T05:59:47.467Z,54.62
2017-08-05T06:02:17.755Z,56.28
2017-08-05T06:04:47.283Z,54.53
2017-08-05T06:07:16.811Z,54.84
2017-08-05T06:09:47.134Z,55.55
2017-08-05T06:12:17.078Z,54.08
2017-08-05T06:14:46.719Z,53.51
2017-08-05T06:17:16.325Z,52.51
2017-08-05T06:19:45.730Z,52.03
2017-08-05T06:22:15.247Z,50.80
2017-08-05T06:24:44.783Z,50.67
2017-08-05T06:27:15.196Z,50.75
2017-08-05T06:29:45.548Z,50.16
2017-08-05T06:32:15.100Z,49.85
2017-08-05T06:34:44.619Z,48.98
2017-08-05T06:37:14.147Z,49.00
2017-08-05T06:39:44.458Z,49.46
2017-08-05T06:42:13.999Z,49.14
2017-08-05T06:44:43.533Z,47.74
2017-08-05T06:47:13.071Z,48.78
2017-08-05T06:49:42.578Z,48.69
2017-08-05T06:52:12.117Z,49.14
2017-08-05T06:54:41.673Z,48.27
2017-08-05T06:57:11.176Z,48.86
2017-08-05T06:59:40.707Z,48.75
2017-08-05T07:02:10.208Z,47.34
2017-08-05T07:04:39.728Z,45.79
2017-08-05T07:07:10.125Z,45.89
2017-08-05T07:09:39.630Z,44.49
2017-08-05T07:12:09.184Z,42.22
2017-08-05T07:14:39.457Z,41.75
2017-08-05T07:17:09.054Z,42.63
2017-08-05T07:19:38.602Z,42.24
2017-08-05T07:22:08.909Z,38.70
2017-08-05T07:24:38.461Z,38.00
2017-08-05T07:27:07.980Z,38.90
2017-08-05T07:29:37.525Z,35.28
2017-08-05T07:32:07.088Z,36.48
2017-08-05T07:34:36.632Z,37.13
2017-08-05T07:37:06.157Z,35.10
2017-08-05T07:39:35.693Z,35.65
2017-08-05T07:42:05.239Z,35.86
2017-08-05T07:44:34.764Z,36.29
2017-08-05T07:47:04.311Z,36.59
2017-08-05T07:49:33.825Z,36.26
2017-08-05T07:52:03.398Z,36.17
2017-08-05T07:54:33.741Z,36.25
2017-08-05T07:57:04.139Z,36.34
2017-08-05T07:59:33.670Z,36.06
2017-08-05T08:02:03.974Z,35.60
2017-08-05T08:04:33.620Z,36.28
2017-08-05T08:07:03.176Z,35.41
2017-08-05T08:09:32.703Z,36.11
2017-08-05T08:12:02.258Z,35.44
2017-08-05T08:14:31.794Z,35.25
2017-08-05T08:17:01.310Z,35.00
2017-08-05T08:19:30.834Z,34.84
2017-08-05T08:22:00.418Z,34.30
2017-08-05T08:24:29.935Z,34.50
2017-08-05T08:27:00.162Z,34.50
2017-08-05T08:29:29.691Z,34.25
2017-08-05T08:31:59.988Z,34.26
2017-08-05T08:34:30.320Z,33.09
2017-08-05T08:36:59.874Z,33.15
2017-08-05T08:39:29.044Z,33.13
2017-08-05T08:41:59.356Z,33.66
2017-08-05T08:44:28.886Z,34.37
2017-08-05T08:46:58.445Z,34.05
2017-08-05T08:49:28.057Z,33.01
2017-08-05T08:51:57.581Z,34.34
2017-08-05T08:54:27.106Z,34.51
2017-08-05T08:56:57.391Z,34.29
2017-08-05T08:59:26.932Z,33.41
2017-08-05T09:01:57.240Z,33.42
2017-08-05T09:04:26.766Z,33.52
2017-08-05T09:06:56.294Z,33.64
2017-08-05T09:09:25.843Z,32.49
2017-08-05T09:11:55.345Z,33.48
2017-08-05T09:14:24.873Z,33.74
2017-08-05T09:16:55.175Z,33.79
2017-08-05T09:19:24.694Z,33.54
2017-08-05T09:21:54.260Z,33.85
2017-08-05T09:24:23.779Z,33.44
2017-08-05T09:26:53.293Z,32.73
2017-08-05T09:29:22.864Z,32.75
2017-08-05T09:31:52.411Z,33.67
2017-08-05T09:34:21.943Z,33.96
2017-08-05T09:36:51.489Z,33.02
2017-08-05T09:39:21.024Z,32.92
2017-08-05T09:41:50.573Z,32.60
2017-08-05T09:44:21.251Z,32.09
2017-08-05T09:46:50.761Z,33.21
2017-08-05T09:49:20.305Z,31.93
2017-08-05T09:51:49.819Z,32.10
2017-08-05T09:54:20.119Z,29.73
2017-08-05T09:56:49.662Z,30.54
2017-08-05T09:59:19.201Z,30.85
2017-08-05T10:01:48.855Z,30.50
2017-08-05T10:04:18.388Z,31.50
2017-08-05T10:06:47.964Z,30.94
2017-08-05T10:09:17.485Z,31.71
2017-08-05T10:11:47.815Z,31.27
2017-08-05T10:14:18.106Z,30.47
2017-08-05T10:16:47.661Z,30.38
2017-08-05T10:19:17.183Z,31.26
2017-08-05T10:21:46.845Z,29.99
2017-08-05T10:24:16.670Z,29.08
2017-08-05T10:26:46.978Z,29.63
2017-08-05T10:29:16.501Z,29.77
2017-08-05T10:31:46.819Z,29.25
2017-08-05T10:34:16.340Z,28.89
2017-08-05T10:36:46.651Z,29.37
2017-08-05T10:39:16.949Z,28.13
2017-08-05T10:41:46.485Z,28.80
2017-08-05T10:44:16.812Z,29.15
2017-08-05T10:46:47.125Z,28.96
2017-08-05T10:49:16.749Z,29.00
2017-08-05T10:51:47.055Z,29.22
2017-08-05T10:54:16.591Z,28.80
2017-08-05T10:56:46.155Z,29.45
2017-08-05T10:59:15.717Z,28.98
2017-08-05T11:01:45.309Z,28.75
2017-08-05T11:04:14.847Z,29.34
2017-08-05T11:06:44.393Z,29.85
2017-08-05T11:09:13.699Z,29.48
2017-08-05T11:11:43.223Z,29.06
2017-08-05T11:14:13.523Z,29.36
2017-08-05T11:16:43.090Z,30.23
2017-08-05T11:19:12.638Z,29.81
2017-08-05T11:21:42.181Z,29.23
2017-08-05T11:24:11.754Z,29.56
2017-08-05T11:26:41.728Z,28.73
2017-08-05T11:29:11.282Z,28.48
2017-08-05T11:31:41.580Z,28.08
2017-08-05T11:34:11.197Z,28.06
2017-08-05T11:36:40.772Z,28.26
2017-08-05T11:39:10.469Z,28.09
2017-08-05T11:41:40.034Z,28.64
2017-08-05T11:44:09.581Z,28.49
2017-08-05T11:46:39.711Z,28.10
2017-08-05T11:49:09.261Z,27.48
2017-08-05T11:51:38.797Z,27.18
2017-08-05T11:54:09.129Z,26.76
2017-08-05T11:56:38.681Z,26.68
2017-08-05T11:59:08.237Z,26.68
2017-08-05T12:01:38.534Z,25.91
2017-08-05T12:04:08.069Z,25.65
2017-08-05T12:06:38.383Z,25.90
2017-08-05T12:09:08.655Z,25.36
2017-08-05T12:11:38.212Z,24.26
2017-08-05T12:14:08.514Z,23.85
2017-08-05T12:16:38.060Z,24.38
2017-08-05T12:19:07.653Z,24.07
2017-08-05T12:21:37.234Z,24.07
2017-08-05T12:24:06.810Z,24.67
2017-08-05T12:26:36.336Z,24.82
2017-08-05T12:29:05.918Z,23.99
2017-08-05T12:31:35.441Z,22.58
2017-08-05T12:34:04.969Z,23.46
2017-08-05T12:36:34.501Z,24.24
2017-08-05T12:39:04.047Z,23.83
2017-08-05T12:41:33.649Z,24.09
2017-08-05T12:44:03.262Z,25.49
2017-08-05T12:46:32.798Z,24.63
2017-08-05T12:49:02.368Z,24.21
2017-08-05T12:51:31.990Z,23.58
2017-08-05T12:54:01.551Z,23.14
2017-08-05T12:56:31.112Z,22.68
2017-08-05T12:59:00.659Z,22.24
2017-08-05T13:01:30.225Z,22.43
2017-08-05T13:03:59.747Z,22.65
2017-08-05T13:06:29.281Z,22.35
2017-08-05T13:08:59.577Z,22.98
2017-08-05T13:11:29.119Z,23.03
2017-08-05T13:13:58.668Z,23.12
2017-08-05T13:16:28.202Z,23.40
2017-08-05T13:18:57.744Z,23.84
2017-08-05T13:21:27.302Z,22.47
2017-08-05T13:23:56.875Z,22.99
2017-08-05T13:26:26.416Z,23.12
2017-08-05T13:28:55.972Z,23.40
2017-08-05T13:31:26.295Z,23.75
2017-08-05T13:33:56.618Z,23.86
2017-08-05T13:36:26.574Z,24.87
2017-08-05T13:38:56.117Z,25.15
2017-08-05T13:41:25.649Z,24.92
2017-08-05T13:43:55.940Z,24.71
2017-08-05T13:46:26.446Z,24.42
2017-08-05T13:48:56.342Z,23.77
2017-08-05T13:51:26.822Z,22.76
2017-08-05T13:53:56.441Z,22.38
2017-08-05T13:56:25.971Z,22.38
2017-08-05T13:58:55.521Z,22.81
2017-08-05T14:01:25.054Z,23.11
2017-08-05T14:03:54.721Z,24.70
2017-08-05T14:06:23.904Z,25.12
2017-08-05T14:08:53.423Z,25.00
2017-08-05T14:11:22.960Z,24.49
2017-08-05T14:13:52.514Z,23.30
2017-08-05T14:16:22.079Z,22.44
2017-08-05T14:18:51.621Z,22.79
2017-08-05T14:21:21.960Z,21.91
2017-08-05T14:23:51.528Z,21.44
2017-08-05T14:26:21.046Z,20.03
2017-08-05T14:28:51.393Z,20.52
2017-08-05T14:31:20.953Z,20.71
2017-08-05T14:33:50.481Z,20.65
2017-08-05T14:36:20.792Z,20.74
2017-08-05T14:38:50.324Z,20.21
2017-08-05T14:41:19.900Z,20.63
2017-08-05T14:43:50.295Z,21.48
2017-08-05T14:46:21.022Z,22.28
2017-08-05T14:48:50.685Z,23.22
2017-08-05T14:51:21.150Z,24.02
2017-08-05T14:53:50.716Z,24.89
2017-08-05T14:56:20.253Z,24.89
2017-08-05T14:58:49.919Z,25.24
2017-08-05T15:01:19.505Z,25.51
2017-08-05T15:03:49.051Z,26.28
2017-08-05T15:06:18.648Z,27.34
2017-08-05T15:08:48.532Z,27.15
2017-08-05T15:11:18.060Z,27.54
2017-08-05T15:13:47.750Z,27.48
2017-08-05T15:16:17.260Z,28.29
2017-08-05T15:18:46.824Z,29.17
2017-08-05T15:21:16.372Z,28.71
2017-08-05T15:23:45.920Z,28.74
2017-08-05T15:26:16.369Z,29.14
2017-08-05T15:28:46.027Z,30.16
2017-08-05T15:31:15.732Z,30.02
2017-08-05T15:33:45.324Z,30.26
2017-08-05T15:36:15.497Z,30.88
2017-08-05T15:38:45.808Z,30.99
2017-08-05T15:41:16.179Z,31.22
2017-08-05T15:43:46.061Z,31.41
2017-08-05T15:46:15.619Z,31.40
2017-08-05T15:48:45.200Z,31.44
2017-08-05T15:51:14.705Z,31.42
2017-08-05T15:53:44.225Z,31.80
2017-08-05T15:56:13.758Z,32.75
2017-08-05T15:58:43.331Z,33.29
2017-08-05T16:01:12.501Z,32.70
2017-08-05T16:03:42.795Z,32.48
2017-08-05T16:06:12.373Z,33.57
2017-08-05T16:08:41.891Z,33.90
2017-08-05T16:11:11.419Z,34.77
2017-08-05T16:13:40.983Z,34.83
2017-08-05T16:16:10.540Z,35.74
2017-08-05T16:18:40.096Z,36.77
2017-08-05T16:21:09.300Z,38.26
2017-08-05T16:23:38.829Z,39.62
2017-08-05T16:26:08.414Z,41.47
2017-08-05T16:28:37.972Z,42.13
2017-08-05T16:31:07.559Z,45.35
2017-08-05T16:33:37.076Z,46.08
2017-08-05T16:36:06.638Z,48.05
2017-08-05T16:38:36.191Z,50.55
2017-08-05T16:41:05.805Z,51.08
2017-08-05T16:43:36.160Z,52.52
2017-08-05T16:46:05.753Z,53.61
2017-08-05T16:48:36.078Z,57.41
2017-08-05T16:51:06.401Z,55.85
2017-08-05T16:53:36.752Z,56.00
2017-08-05T16:56:05.935Z,57.44
2017-08-05T16:58:40.389Z,59.01
2017-08-05T17:01:09.919Z,58.29
2017-08-05T17:03:39.465Z,59.26
2017-08-05T17:06:12.615Z,58.24
2017-08-05T17:08:42.909Z,59.79
2017-08-05T17:11:12.450Z,60.36
2017-08-05T17:13:41.961Z,59.87
2017-08-05T17:16:11.508Z,61.56
2017-08-05T17:18:41.826Z,60.97
2017-08-05T17:21:12.169Z,59.61
2017-08-05T17:23:41.727Z,60.96
2017-08-05T17:26:11.252Z,59.26
2017-08-05T17:28:40.767Z,59.22
2017-08-05T17:31:11.089Z,57.34
2017-08-05T17:33:40.646Z,59.60
2017-08-05T17:36:12.197Z,58.33
2017-08-05T17:38:41.890Z,61.34
2017-08-05T17:41:12.130Z,61.26
2017-08-05T17:43:41.644Z,60.42
2017-08-05T17:46:11.177Z,60.81
2017-08-05T17:48:40.769Z,59.41
2017-08-05T17:51:10.370Z,60.00
2017-08-05T17:53:39.885Z,61.11
2017-08-05T17:56:09.446Z,61.98
2017-08-05T17:58:38.992Z,63.35
2017-08-05T18:01:08.527Z,64.15
2017-08-05T18:03:38.089Z,68.13
2017-08-05T18:06:07.661Z,66.45
2017-08-05T18:08:39.913Z,63.34
2017-08-05T18:11:09.486Z,62.50
2017-08-05T18:13:39.014Z,62.43
2017-08-05T18:16:08.562Z,63.06
2017-08-05T18:18:38.118Z,64.39
2017-08-05T18:21:07.675Z,63.36
2017-08-05T18:23:38.119Z,63.13
2017-08-05T18:26:07.650Z,62.73
2017-08-05T18:28:37.185Z,62.56
2017-08-05T18:31:06.719Z,63.62
2017-08-05T18:33:36.258Z,64.86
2017-08-05T18:36:05.488Z,67.53
2017-08-05T18:38:35.830Z,67.93
2017-08-05T18:41:06.152Z,68.29
2017-08-05T18:43:35.679Z,68.28
2017-08-05T18:46:05.236Z,68.37
2017-08-05T18:48:34.819Z,66.92
2017-08-05T18:51:04.349Z,66.75
2017-08-05T18:53:33.888Z,66.54
2017-08-05T18:56:04.210Z,67.78
2017-08-05T18:58:33.735Z,69.14
2017-08-05T19:01:03.284Z,67.62
2017-08-05T19:03:32.810Z,65.54
2017-08-05T19:06:02.328Z,67.73
2017-08-05T19:08:32.626Z,69.19
2017-08-05T19:11:02.141Z,69.06
2017-08-05T19:13:31.758Z,69.26
2017-08-05T19:16:01.358Z,73.08
2017-08-05T19:18:30.884Z,70.66
2017-08-05T19:21:00.431Z,73.53
2017-08-05T19:23:29.996Z,72.43
2017-08-05T19:25:59.507Z,72.52
2017-08-05T19:28:29.103Z,72.92
2017-08-05T19:30:58.681Z,71.95
2017-08-05T19:33:27.855Z,70.47
2017-08-05T19:35:57.386Z,72.18
2017-08-05T19:38:26.996Z,71.51
2017-08-05T19:40:56.554Z,69.79
2017-08-05T19:43:27.697Z,69.74
2017-08-05T19:45:57.987Z,68.98
2017-08-05T19:48:27.530Z,68.36
2017-08-05T19:50:57.887Z,69.58
2017-08-05T19:53:27.468Z,68.40
2017-08-05T19:55:57.762Z,69.64
2017-08-05T19:58:27.353Z,69.90
2017-08-05T20:00:56.893Z,69.65
2017-08-05T20:03:26.444Z,69.95
2017-08-05T20:05:55.962Z,72.92
2017-08-05T20:08:25.520Z,73.29
2017-08-05T20:10:55.774Z,71.39
2017-08-05T20:13:25.342Z,71.63
2017-08-05T20:15:55.668Z,71.29
2017-08-05T20:18:26.210Z,69.86
2017-08-05T20:20:56.529Z,68.11
2017-08-05T20:23:26.934Z,69.62
2017-08-05T20:25:56.538Z,70.17
2017-08-05T20:28:26.080Z,70.01
2017-08-05T20:30:55.647Z,70.96
2017-08-05T20:33:25.191Z,71.27
2017-08-05T20:35:54.785Z,71.91
2017-08-05T20:38:25.145Z,71.35
2017-08-05T20:40:54.738Z,71.31
2017-08-05T20:43:24.266Z,71.84
2017-08-05T20:45:53.500Z,71.51
2017-08-05T20:48:23.050Z,71.73
2017-08-05T20:50:52.579Z,72.86
2017-08-05T20:53:22.131Z,72.44
2017-08-05T20:55:51.691Z,71.07
2017-08-05T20:58:21.224Z,73.65
2017-08-05T21:00:50.774Z,73.74
2017-08-05T21:03:21.185Z,73.54
2017-08-05T21:05:51.511Z,71.63
2017-08-05T21:08:21.045Z,72.01
2017-08-05T21:10:50.616Z,73.46
2017-08-05T21:13:20.846Z,72.73
2017-08-05T21:15:50.382Z,72.83
2017-08-05T21:18:19.951Z,72.90
2017-08-05T21:20:49.327Z,73.54
2017-08-05T21:23:18.866Z,73.89
2017-08-05T21:25:48.405Z,72.60
2017-08-05T21:28:17.951Z,72.45
2017-08-05T21:30:47.485Z,72.05
2017-08-05T21:33:17.066Z,72.21
2017-08-05T21:35:46.588Z,72.63
2017-08-05T21:38:16.112Z,72.28
2017-08-05T21:40:46.917Z,71.50
2017-08-05T21:43:16.437Z,71.79
2017-08-05T21:45:46.066Z,72.04
2017-08-05T21:48:16.355Z,72.00
2017-08-05T21:50:45.887Z,70.80
2017-08-05T21:53:15.490Z,73.22
2017-08-05T21:55:44.787Z,73.49
2017-08-05T21:58:14.317Z,73.52
2017-08-05T22:03:21.393Z,73.14
2017-08-05T22:05:50.584Z,71.92
2017-08-05T22:08:20.113Z,71.15
2017-08-05T22:10:50.411Z,70.23
2017-08-05T22:13:19.932Z,71.02
2017-08-05T22:15:49.484Z,68.87
2017-08-05T22:18:19.010Z,71.21
2017-08-05T22:20:48.603Z,74.22
2017-08-05T22:23:18.158Z,76.13
2017-08-05T22:25:47.692Z,75.95
2017-08-05T22:28:18.010Z,75.95
2017-08-05T22:30:48.438Z,75.53
2017-08-05T22:33:18.770Z,74.66
2017-08-05T22:35:48.368Z,75.10
2017-08-05T22:38:18.687Z,74.10
2017-08-05T22:40:49.871Z,72.37
2017-08-05T22:43:19.406Z,74.81
2017-08-05T22:45:49.002Z,72.66
2017-08-05T22:48:18.545Z,73.69
2017-08-05T22:50:48.115Z,72.84
2017-08-05T22:53:17.630Z,71.64
2017-08-05T22:55:47.166Z,70.96
2017-08-05T22:58:16.700Z,69.75
2017-08-05T23:00:45.940Z,68.75
2017-08-05T23:03:15.461Z,69.92
2017-08-05T23:05:44.639Z,69.04
2017-08-05T23:08:14.210Z,68.67
2017-08-05T23:10:43.766Z,67.39
2017-08-05T23:13:13.329Z,68.66
2017-08-05T23:15:42.849Z,69.95
2017-08-05T23:18:12.418Z,70.28
2017-08-05T23:20:42.739Z,70.25
2017-08-05T23:23:12.241Z,70.35
2017-08-05T23:25:41.813Z,68.67
2017-08-05T23:28:11.391Z,69.37
2017-08-05T23:30:40.917Z,69.41
2017-08-05T23:33:10.472Z,68.89
2017-08-05T23:35:40.776Z,70.66
2017-08-05T23:38:10.316Z,71.35
2017-08-05T23:40:40.635Z,69.36
2017-08-05T23:43:10.994Z,69.59
2017-08-05T23:45:40.523Z,69.74
2017-08-05T23:48:10.087Z,69.83
2017-08-05T23:50:39.604Z,69.94
2017-08-05T23:53:09.142Z,69.22
2017-08-05T23:55:38.694Z,67.90
2017-08-05T23:58:08.983Z,67.18
